createdAt,value
2022-11-21T00:01:30.918Z,99432.63
2022-11-21T00:03:57.736Z,99428.28
2022-11-21T00:06:27.031Z,99404.63
2022-11-21T00:08:53.716Z,99408.94
2022-11-21T00:11:20.399Z,99404.84
2022-11-21T00:13:47.201Z,99395.38
2022-11-21T00:16:16.049Z,99394.47
2022-11-21T00:18:44.372Z,99395.09
2022-11-21T00:21:19.937Z,99396.28
2022-11-21T00:23:48.020Z,99387.19
2022-11-21T00:26:18.920Z,99385.59
2022-11-21T00:28:47.990Z,99392.63
2022-11-21T00:31:23.262Z,99396.69
2022-11-21T00:33:50.106Z,99383.72
2022-11-21T00:36:16.985Z,99383.94
2022-11-21T00:38:43.777Z,99377.91
2022-11-21T00:41:12.685Z,99380.22
2022-11-21T00:43:39.481Z,99370.72
2022-11-21T00:46:08.640Z,99369.75
2022-11-21T00:48:37.561Z,99366.28
2022-11-21T00:51:06.549Z,99367.09
2022-11-21T00:53:35.496Z,99369.75
2022-11-21T00:56:02.331Z,99374.94
2022-11-21T00:58:29.119Z,99376.06
2022-11-21T01:01:07.009Z,99380.59
2022-11-21T01:03:35.340Z,99387.13
2022-11-21T01:06:06.644Z,99376.19
2022-11-21T01:08:38.153Z,99374.06
2022-11-21T01:11:06.819Z,99373.09
2022-11-21T01:13:34.613Z,99372.81
2022-11-21T01:16:07.007Z,99371.34
2022-11-21T01:18:36.440Z,99357.19
2022-11-21T01:21:04.399Z,99364.38
2022-11-21T01:23:31.220Z,99365.09
2022-11-21T01:26:09.853Z,99357.81
2022-11-21T01:28:36.627Z,99355.09
2022-11-21T01:31:08.667Z,99357.47
2022-11-21T01:33:39.149Z,99355.44
2022-11-21T01:36:14.635Z,99353.28
2022-11-21T01:38:42.060Z,99351.88
2022-11-21T01:41:12.778Z,99352.78
2022-11-21T01:43:47.889Z,99353.59
2022-11-21T01:46:19.942Z,99347.88
2022-11-21T01:48:49.603Z,99347.94
2022-11-21T01:51:30.829Z,99345.59
2022-11-21T01:54:07.374Z,99347.06
2022-11-21T01:56:41.788Z,99347.94
2022-11-21T01:59:21.836Z,99344.97
2022-11-21T02:01:55.529Z,99353.34
2022-11-21T02:04:28.137Z,99347.44
2022-11-21T02:06:57.272Z,99351.91
2022-11-21T02:09:27.326Z,99364.94
2022-11-21T02:12:09.984Z,99356.16
2022-11-21T02:14:42.337Z,99356.31
2022-11-21T02:17:14.241Z,99356.44
2022-11-21T02:19:59.564Z,99349.41
2022-11-21T02:23:02.672Z,99348.38
2022-11-21T02:25:36.087Z,99339.09
2022-11-21T02:28:11.128Z,99333.66
2022-11-21T02:30:40.134Z,99336.31
2022-11-21T02:33:06.995Z,99337.38
2022-11-21T02:35:34.174Z,99327.03
2022-11-21T02:38:22.595Z,99315.66
2022-11-21T02:40:55.068Z,99328.91
2022-11-21T02:43:28.641Z,99330.38
2022-11-21T02:45:55.258Z,99327.50
2022-11-21T02:48:24.380Z,99322.19
2022-11-21T02:50:53.387Z,99322.00
2022-11-21T02:53:24.785Z,99323.38
2022-11-21T02:55:53.639Z,99323.09
2022-11-21T02:58:22.438Z,99332.34
2022-11-21T03:00:49.361Z,99325.34
2022-11-21T03:03:15.979Z,99338.03
2022-11-21T03:05:43.022Z,99334.47
2022-11-21T03:08:10.242Z,99336.94
2022-11-21T03:10:37.199Z,99344.41
2022-11-21T03:13:03.921Z,99342.97
2022-11-21T03:15:34.999Z,99341.78
2022-11-21T03:18:05.385Z,99342.09
2022-11-21T03:20:35.745Z,99334.31
2022-11-21T03:23:03.086Z,99331.78
2022-11-21T03:25:32.116Z,99328.72
2022-11-21T03:27:58.606Z,99323.13
2022-11-21T03:30:30.767Z,99325.13
2022-11-21T03:32:57.905Z,99320.72
2022-11-21T03:35:28.894Z,99314.41
2022-11-21T03:37:55.436Z,99309.63
2022-11-21T03:40:24.175Z,99308.28
2022-11-21T03:42:50.674Z,99302.22
2022-11-21T03:45:19.459Z,99299.19
2022-11-21T03:47:46.005Z,99309.00
2022-11-21T03:50:18.535Z,99303.56
2022-11-21T03:52:45.033Z,99294.19
2022-11-21T03:55:11.571Z,99290.31
2022-11-21T03:57:41.860Z,99306.59
2022-11-21T04:00:09.417Z,99288.75
2022-11-21T04:02:36.024Z,99290.63
2022-11-21T04:05:04.996Z,99289.06
2022-11-21T04:07:31.599Z,99288.19
2022-11-21T04:09:58.171Z,99290.97
2022-11-21T04:12:24.685Z,99281.00
2022-11-21T04:14:51.197Z,99283.53
2022-11-21T04:17:17.749Z,99275.50
2022-11-21T04:19:44.263Z,99277.25
2022-11-21T04:22:13.277Z,99280.91
2022-11-21T04:24:39.806Z,99275.31
2022-11-21T04:27:06.389Z,99273.69
2022-11-21T04:29:32.910Z,99275.22
2022-11-21T04:31:59.714Z,99280.59
2022-11-21T04:34:26.467Z,99266.91
2022-11-21T04:36:53.386Z,99257.34
2022-11-21T04:39:20.445Z,99263.59
2022-11-21T04:41:47.013Z,99263.94
2022-11-21T04:44:13.582Z,99255.53
2022-11-21T04:46:40.219Z,99264.00
2022-11-21T04:49:06.717Z,99261.91
2022-11-21T04:51:33.234Z,99254.66
2022-11-21T04:54:00.095Z,99254.41
2022-11-21T04:56:26.642Z,99241.34
2022-11-21T04:58:53.506Z,99240.44
2022-11-21T05:01:22.341Z,99240.03
2022-11-21T05:03:48.859Z,99244.94
2022-11-21T05:06:15.426Z,99254.28
2022-11-21T05:08:42.036Z,99265.25
2022-11-21T05:11:26.800Z,99255.44
2022-11-21T05:13:58.579Z,99259.97
2022-11-21T05:16:27.381Z,99271.00
2022-11-21T05:18:53.903Z,99255.00
2022-11-21T05:21:22.947Z,99253.94
2022-11-21T05:23:51.859Z,99256.16
2022-11-21T05:26:18.394Z,99260.19
2022-11-21T05:28:48.712Z,99257.72
2022-11-21T05:31:15.245Z,99248.69
2022-11-21T05:33:41.767Z,99245.22
2022-11-21T05:36:13.139Z,99253.69
2022-11-21T05:38:39.660Z,99244.41
2022-11-21T05:41:08.344Z,99246.28
2022-11-21T05:43:46.961Z,99242.75
2022-11-21T05:46:15.525Z,99235.75
2022-11-21T05:48:42.397Z,99237.34
2022-11-21T05:51:09.437Z,99238.22
2022-11-21T05:53:36.069Z,99233.97
2022-11-21T05:56:10.852Z,99231.59
2022-11-21T05:58:40.636Z,99242.44
2022-11-21T06:01:10.910Z,99233.22
2022-11-21T06:03:41.574Z,99235.38
2022-11-21T06:06:08.048Z,99237.91
2022-11-21T06:08:37.320Z,99234.75
2022-11-21T06:11:05.500Z,99243.22
2022-11-21T06:13:33.761Z,99238.44
2022-11-21T06:16:00.206Z,99232.63
2022-11-21T06:18:27.966Z,99240.53
2022-11-21T06:20:57.736Z,99226.97
2022-11-21T06:23:24.224Z,99238.34
2022-11-21T06:25:57.175Z,99243.75
2022-11-21T06:28:24.139Z,99247.38
2022-11-21T06:30:52.121Z,99246.97
2022-11-21T06:33:23.621Z,99247.03
2022-11-21T06:35:57.551Z,99253.06
2022-11-21T06:38:24.335Z,99250.00
2022-11-21T06:40:55.716Z,99250.94
2022-11-21T06:43:24.514Z,99243.66
2022-11-21T06:45:58.776Z,99257.19
2022-11-21T06:48:25.869Z,99259.19
2022-11-21T06:50:52.553Z,99263.84
2022-11-21T06:53:19.717Z,99266.53
2022-11-21T06:55:48.480Z,99270.69
2022-11-21T06:58:14.981Z,99281.38
2022-11-21T07:00:41.618Z,99283.56
2022-11-21T07:03:08.148Z,99287.88
2022-11-21T07:05:37.695Z,99284.75
2022-11-21T07:08:07.938Z,99289.56
2022-11-21T07:10:37.052Z,99288.41
2022-11-21T07:13:24.642Z,99289.63
2022-11-21T07:15:58.373Z,99285.69
2022-11-21T07:18:27.481Z,99287.13
2022-11-21T07:21:01.397Z,99292.75
2022-11-21T07:23:28.999Z,99285.56
2022-11-21T07:25:59.318Z,99276.75
2022-11-21T07:28:25.854Z,99270.91
2022-11-21T07:30:56.661Z,99282.66
2022-11-21T07:33:25.782Z,99279.63
2022-11-21T07:35:54.809Z,99287.03
2022-11-21T07:38:21.334Z,99282.28
2022-11-21T07:40:50.525Z,99281.47
2022-11-21T07:43:19.770Z,99277.84
2022-11-21T07:45:46.354Z,99282.13
2022-11-21T07:48:15.488Z,99294.97
2022-11-21T07:50:42.199Z,99287.81
2022-11-21T07:53:11.915Z,99294.97
2022-11-21T07:55:41.293Z,99294.72
2022-11-21T07:58:10.923Z,99297.78
2022-11-21T08:00:42.863Z,99304.72
2022-11-21T08:03:15.310Z,99308.19
2022-11-21T08:05:45.620Z,99308.47
2022-11-21T08:08:15.354Z,99305.72
2022-11-21T08:10:48.665Z,99315.47
2022-11-21T08:13:17.426Z,99314.69
2022-11-21T08:15:46.158Z,99311.00
2022-11-21T08:18:19.683Z,99321.94
2022-11-21T08:20:46.788Z,99324.28
2022-11-21T08:23:16.434Z,99313.97
2022-11-21T08:25:43.533Z,99314.00
2022-11-21T08:28:11.810Z,99310.00
2022-11-21T08:30:39.770Z,99316.97
2022-11-21T08:33:08.858Z,99317.00
2022-11-21T08:35:38.472Z,99307.94
2022-11-21T08:38:05.520Z,99311.59
2022-11-21T08:40:33.002Z,99315.25
2022-11-21T08:43:01.262Z,99318.31
2022-11-21T08:45:28.591Z,99317.22
2022-11-21T08:47:55.720Z,99326.22
2022-11-21T08:50:28.056Z,99323.19
2022-11-21T08:53:01.329Z,99320.78
2022-11-21T08:55:28.387Z,99325.81
2022-11-21T08:57:54.880Z,99322.69
2022-11-21T09:00:24.047Z,99314.84
2022-11-21T09:02:50.639Z,99309.47
2022-11-21T09:05:17.131Z,99312.34
2022-11-21T09:07:43.822Z,99314.31
2022-11-21T09:10:10.567Z,99310.81
2022-11-21T09:12:37.069Z,99323.53
2022-11-21T09:15:22.932Z,99328.53
2022-11-21T09:18:04.437Z,99323.63
2022-11-21T09:20:32.167Z,99321.59
2022-11-21T09:23:04.271Z,99314.88
2022-11-21T09:25:30.827Z,99308.78
2022-11-21T09:28:01.880Z,99312.03
2022-11-21T09:30:28.535Z,99311.41
2022-11-21T09:33:02.440Z,99302.34
2022-11-21T09:35:29.453Z,99314.56
2022-11-21T09:37:59.092Z,99311.78
2022-11-21T09:40:32.154Z,99308.66
2022-11-21T09:43:30.124Z,99308.88
2022-11-21T09:46:04.001Z,99317.53
2022-11-21T09:48:41.998Z,99318.34
2022-11-21T09:51:16.286Z,99314.16
2022-11-21T09:53:45.783Z,99314.44
2022-11-21T09:56:20.096Z,99310.50
2022-11-21T09:59:12.686Z,99321.47
2022-11-21T10:01:41.664Z,99325.13
2022-11-21T10:04:08.471Z,99320.97
2022-11-21T10:06:51.598Z,99313.50
2022-11-21T10:09:55.331Z,99315.88
2022-11-21T10:12:39.863Z,99312.25
2022-11-21T10:15:34.304Z,99310.72
2022-11-21T10:18:07.783Z,99311.47
2022-11-21T10:20:46.280Z,99311.78
2022-11-21T10:23:31.402Z,99300.13
2022-11-21T10:26:15.953Z,99301.88
2022-11-21T10:29:05.642Z,99292.63
2022-11-21T10:31:37.953Z,99293.50
2022-11-21T10:34:13.003Z,99289.16
2022-11-21T10:36:45.965Z,99283.22
2022-11-21T10:39:22.470Z,99281.13
2022-11-21T10:42:02.362Z,99275.22
2022-11-21T10:44:50.436Z,99273.03
2022-11-21T10:47:30.951Z,99283.34
2022-11-21T10:50:11.772Z,99283.94
2022-11-21T10:52:49.304Z,99277.94
2022-11-21T10:55:20.251Z,99273.84
2022-11-21T10:57:49.805Z,99264.19
2022-11-21T11:00:23.510Z,99274.94
2022-11-21T11:03:07.131Z,99272.03
2022-11-21T11:05:38.629Z,99273.13
2022-11-21T11:08:13.051Z,99276.34
2022-11-21T11:10:47.897Z,99271.28
2022-11-21T11:13:49.870Z,99277.50
2022-11-21T11:16:21.568Z,99274.25
2022-11-21T11:18:59.104Z,99277.06
2022-11-21T11:21:31.191Z,99268.47
2022-11-21T11:24:20.630Z,99261.47
2022-11-21T11:26:48.491Z,99260.22
2022-11-21T11:29:15.624Z,99257.56
2022-11-21T11:31:54.775Z,99250.91
2022-11-21T11:34:44.815Z,99249.09
2022-11-21T11:37:13.531Z,99243.16
2022-11-21T11:39:58.548Z,99244.88
2022-11-21T11:42:52.359Z,99229.03
2022-11-21T11:46:14.853Z,99230.88
2022-11-21T11:49:11.017Z,99233.66
2022-11-21T11:51:50.265Z,99227.09
2022-11-21T11:54:51.250Z,99223.88
2022-11-21T11:57:18.976Z,99224.81
2022-11-21T11:59:52.207Z,99218.50
2022-11-21T12:02:25.655Z,99211.38
2022-11-21T12:05:25.110Z,99212.38
2022-11-21T12:08:40.850Z,99206.50
2022-11-21T12:11:42.455Z,99195.31
2022-11-21T12:14:40.268Z,99191.34
2022-11-21T12:17:10.330Z,99185.63
2022-11-21T12:19:39.594Z,99180.88
2022-11-21T12:22:06.693Z,99186.81
2022-11-21T12:24:42.742Z,99191.13
2022-11-21T12:27:31.789Z,99192.13
2022-11-21T12:30:16.054Z,99189.31
2022-11-21T12:33:08.205Z,99183.50
2022-11-21T12:36:18.169Z,99174.81
2022-11-21T12:39:09.085Z,99174.38
2022-11-21T12:41:57.226Z,99176.94
2022-11-21T12:44:23.628Z,99167.81
2022-11-21T12:46:50.086Z,99163.56
2022-11-21T12:49:59.898Z,99171.22
2022-11-21T12:52:55.311Z,99173.00
2022-11-21T12:55:21.814Z,99168.88
2022-11-21T12:58:22.344Z,99167.34
2022-11-21T13:01:07.561Z,99167.28
2022-11-21T13:03:48.032Z,99168.09
2022-11-21T13:06:27.884Z,99169.59
2022-11-21T13:08:57.003Z,99178.31
2022-11-21T13:11:57.710Z,99176.72
2022-11-21T13:14:51.976Z,99172.00
2022-11-21T13:17:36.755Z,99168.66
2022-11-21T13:20:22.784Z,99170.25
2022-11-21T13:22:51.813Z,99178.44
2022-11-21T13:25:32.619Z,99171.03
2022-11-21T13:28:35.366Z,99174.19
2022-11-21T13:31:05.614Z,99172.72
2022-11-21T13:33:34.865Z,99173.09
2022-11-21T13:36:10.271Z,99171.78
2022-11-21T13:38:52.941Z,99168.47
2022-11-21T13:41:53.183Z,99169.94
2022-11-21T13:44:43.062Z,99174.50
2022-11-21T13:47:09.524Z,99183.00
2022-11-21T13:49:44.326Z,99183.88
2022-11-21T13:52:22.337Z,99185.41
2022-11-21T13:55:07.465Z,99176.63
2022-11-21T13:58:06.782Z,99185.72
2022-11-21T14:00:51.777Z,99183.13
2022-11-21T14:04:00.022Z,99188.72
2022-11-21T14:06:52.708Z,99181.78
2022-11-21T14:09:45.686Z,99189.16
2022-11-21T14:12:39.642Z,99192.53
2022-11-21T14:15:20.507Z,99186.47
2022-11-21T14:17:57.181Z,99187.31
2022-11-21T14:20:23.671Z,99184.63
2022-11-21T14:22:56.344Z,99187.22
2022-11-21T14:25:42.354Z,99182.94
2022-11-21T14:28:16.906Z,99178.47
2022-11-21T14:30:49.757Z,99188.19
2022-11-21T14:33:29.840Z,99182.34
2022-11-21T14:36:07.533Z,99185.53
2022-11-21T14:38:44.655Z,99202.13
2022-11-21T14:41:26.355Z,99197.13
2022-11-21T14:43:58.761Z,99199.28
2022-11-21T14:46:27.359Z,99198.16
2022-11-21T14:48:54.834Z,99195.66
2022-11-21T14:51:25.586Z,99186.59
2022-11-21T14:53:54.743Z,99184.56
2022-11-21T14:56:32.416Z,99194.88
2022-11-21T14:59:02.356Z,99198.63
2022-11-21T15:01:34.219Z,99205.25
2022-11-21T15:04:08.586Z,99204.13
2022-11-21T15:06:43.464Z,99202.50
2022-11-21T15:12:09.805Z,99214.50
2022-11-21T15:14:39.210Z,99218.69
2022-11-21T15:17:14.557Z,99211.88
2022-11-21T15:19:47.207Z,99216.34
2022-11-21T15:22:37.340Z,99220.28
2022-11-21T15:25:24.614Z,99217.16
2022-11-21T15:28:03.522Z,99229.81
2022-11-21T15:30:32.194Z,99225.47
2022-11-21T15:33:03.178Z,99229.41
2022-11-21T15:35:35.897Z,99233.81
2022-11-21T15:38:33.390Z,99231.50
2022-11-21T15:41:04.239Z,99242.94
2022-11-21T15:43:36.679Z,99242.94
2022-11-21T15:46:20.989Z,99245.38
2022-11-21T15:48:52.534Z,99241.13
2022-11-21T15:51:44.050Z,99239.34
2022-11-21T15:54:14.590Z,99248.88
2022-11-21T15:56:41.167Z,99250.72
2022-11-21T15:59:12.818Z,99248.13
2022-11-21T16:01:45.140Z,99248.59
2022-11-21T16:04:14.947Z,99232.16
2022-11-21T16:06:41.620Z,99235.97
2022-11-21T16:09:08.166Z,99236.91
2022-11-21T16:11:37.377Z,99220.78
2022-11-21T16:14:07.891Z,99203.88
2022-11-21T16:16:43.198Z,99201.28
2022-11-21T16:19:11.667Z,99222.69
2022-11-21T16:21:38.815Z,99227.44
2022-11-21T16:24:08.359Z,99221.63
2022-11-21T16:26:35.168Z,99220.53
2022-11-21T16:29:07.030Z,99216.25
2022-11-21T16:31:36.320Z,99213.56
2022-11-21T16:34:02.862Z,99218.34
2022-11-21T16:36:30.655Z,99212.66
2022-11-21T16:39:08.709Z,99205.13
2022-11-21T16:41:36.989Z,99206.75
2022-11-21T16:44:05.954Z,99204.22
2022-11-21T16:46:32.520Z,99209.56
2022-11-21T16:49:01.068Z,99207.59
2022-11-21T16:51:28.662Z,99212.69
2022-11-21T16:54:05.666Z,99220.25
2022-11-21T16:56:37.206Z,99216.25
2022-11-21T16:59:03.731Z,99214.69
2022-11-21T17:01:30.329Z,99215.88
2022-11-21T17:03:59.169Z,99229.13
2022-11-21T17:06:31.365Z,99219.41
2022-11-21T17:09:01.044Z,99225.28
2022-11-21T17:11:31.433Z,99230.34
2022-11-21T17:14:06.337Z,99239.53
2022-11-21T17:16:34.713Z,99242.78
2022-11-21T17:19:04.577Z,99236.50
2022-11-21T17:21:32.027Z,99232.16
2022-11-21T17:24:01.149Z,99230.69
2022-11-21T17:26:31.442Z,99236.22
2022-11-21T17:29:05.265Z,99245.16
2022-11-21T17:31:34.514Z,99239.03
2022-11-21T17:34:03.594Z,99244.69
2022-11-21T17:36:30.984Z,99243.16
2022-11-21T17:38:57.816Z,99238.00
2022-11-21T17:41:25.501Z,99248.13
2022-11-21T17:44:02.039Z,99254.78
2022-11-21T17:46:28.755Z,99247.38
2022-11-21T17:48:58.291Z,99243.38
2022-11-21T17:51:34.874Z,99241.03
2022-11-21T17:54:08.289Z,99252.66
2022-11-21T17:56:42.371Z,99242.38
2022-11-21T17:59:14.746Z,99252.94
2022-11-21T18:01:43.720Z,99248.34
2022-11-21T18:04:15.437Z,99257.25
2022-11-21T18:06:47.124Z,99251.66
2022-11-21T18:09:14.127Z,99247.09
2022-11-21T18:11:41.003Z,99239.69
2022-11-21T18:14:09.821Z,99239.13
2022-11-21T18:16:36.500Z,99240.50
2022-11-21T18:19:03.269Z,99239.31
2022-11-21T18:21:35.505Z,99236.22
2022-11-21T18:24:04.390Z,99239.28
2022-11-21T18:26:37.178Z,99244.56
2022-11-21T18:31:58.084Z,99236.13
2022-11-21T18:34:24.630Z,99241.81
2022-11-21T18:36:51.149Z,99240.06
2022-11-21T18:39:17.719Z,99233.38
2022-11-21T18:41:44.249Z,99231.53
2022-11-21T18:44:14.587Z,99234.03
2022-11-21T18:46:48.498Z,99230.47
2022-11-21T18:49:18.059Z,99233.34
2022-11-21T18:51:49.295Z,99232.97
2022-11-21T18:54:15.946Z,99224.22
2022-11-21T18:56:42.555Z,99223.31
2022-11-21T18:59:11.603Z,99234.28
2022-11-21T19:01:39.937Z,99232.06
2022-11-21T19:04:06.723Z,99227.75
2022-11-21T19:06:33.319Z,99225.03
2022-11-21T19:09:00.097Z,99229.56
2022-11-21T19:11:30.575Z,99225.34
2022-11-21T19:13:59.379Z,99218.19
2022-11-21T19:16:27.762Z,99222.41
2022-11-21T19:19:31.975Z,99221.59
2022-11-21T19:21:41.825Z,99224.34
2022-11-21T19:24:13.355Z,99223.63
2022-11-21T19:26:43.156Z,99233.38
2022-11-21T19:29:12.828Z,99239.00
2022-11-21T19:31:45.106Z,99238.34
2022-11-21T19:34:14.013Z,99236.00
2022-11-21T19:36:40.722Z,99238.78
2022-11-21T19:39:07.784Z,99231.91
2022-11-21T19:41:34.381Z,99237.41
2022-11-21T19:44:04.124Z,99235.66
2022-11-21T19:46:36.230Z,99238.63
2022-11-21T19:49:06.790Z,99240.78
2022-11-21T19:51:39.575Z,99242.78
2022-11-21T19:54:09.367Z,99247.22
2022-11-21T19:56:36.253Z,99250.94
2022-11-21T19:59:05.586Z,99243.41
2022-11-21T20:01:32.762Z,99242.78
2022-11-21T20:04:04.026Z,99238.81
2022-11-21T20:06:34.077Z,99246.25
2022-11-21T20:09:05.447Z,99250.78
2022-11-21T20:11:33.304Z,99250.34
2022-11-21T20:14:02.584Z,99255.53
2022-11-21T20:16:36.238Z,99258.25
2022-11-21T20:19:07.898Z,99257.66
2022-11-21T20:21:34.443Z,99251.97
2022-11-21T20:24:01.271Z,99255.22
2022-11-21T20:26:30.572Z,99251.97
2022-11-21T20:28:57.037Z,99250.56
2022-11-21T20:31:33.330Z,99251.34
2022-11-21T20:34:07.747Z,99250.34
2022-11-21T20:36:37.831Z,99252.63
2022-11-21T20:39:13.388Z,99241.25
2022-11-21T20:41:39.842Z,99245.81
2022-11-21T20:46:57.214Z,99247.72
2022-11-21T20:49:26.526Z,99250.81
2022-11-21T20:54:39.773Z,99245.53
2022-11-21T20:57:10.378Z,99235.78
2022-11-21T20:59:43.542Z,99237.41
2022-11-21T21:02:14.365Z,99236.09
2022-11-21T21:04:41.338Z,99240.06
2022-11-21T21:07:07.944Z,99236.84
2022-11-21T21:09:36.745Z,99240.94
2022-11-21T21:12:06.069Z,99233.09
2022-11-21T21:14:34.732Z,99235.03
2022-11-21T21:17:03.686Z,99221.91
2022-11-21T21:19:30.445Z,99217.50
2022-11-21T21:21:57.146Z,99209.41
2022-11-21T21:24:26.081Z,99209.38
2022-11-21T21:26:57.357Z,99206.19
2022-11-21T21:29:23.865Z,99200.72
2022-11-21T21:31:52.281Z,99199.72
2022-11-21T21:34:22.801Z,99200.97
2022-11-21T21:36:50.748Z,99193.34
2022-11-21T21:39:19.712Z,99195.47
2022-11-21T21:41:51.016Z,99187.84
2022-11-21T21:44:29.854Z,99189.75
2022-11-21T21:47:04.175Z,99187.78
2022-11-21T21:49:33.107Z,99182.00
2022-11-21T21:51:59.615Z,99190.53
2022-11-21T21:54:28.500Z,99201.97
2022-11-21T21:56:55.309Z,99194.47
2022-11-21T21:59:21.794Z,99202.50
2022-11-21T22:01:50.825Z,99197.84
2022-11-21T22:04:17.356Z,99193.66
2022-11-21T22:06:43.887Z,99191.81
2022-11-21T22:09:14.966Z,99200.06
2022-11-21T22:11:47.262Z,99195.59
2022-11-21T22:14:19.044Z,99198.16
2022-11-21T22:16:48.160Z,99202.75
2022-11-21T22:19:20.936Z,99202.19
2022-11-21T22:21:50.450Z,99203.03
2022-11-21T22:24:27.575Z,99197.38
2022-11-21T22:26:57.243Z,99197.09
2022-11-21T22:29:24.271Z,99207.88
2022-11-21T22:31:51.599Z,99201.63
2022-11-21T22:34:18.401Z,99210.66
2022-11-21T22:36:46.851Z,99210.31
2022-11-21T22:39:15.858Z,99213.88
2022-11-21T22:41:44.960Z,99218.44
2022-11-21T22:44:11.594Z,99216.09
2022-11-21T22:46:40.537Z,99212.44
2022-11-21T22:49:10.279Z,99211.91
2022-11-21T22:51:36.880Z,99206.41
2022-11-21T22:54:03.436Z,99201.38
2022-11-21T22:56:30.062Z,99208.31
2022-11-21T22:58:56.626Z,99201.38
2022-11-21T23:01:29.471Z,99204.94
2022-11-21T23:03:58.710Z,99210.50
2022-11-21T23:06:26.745Z,99206.88
2022-11-21T23:08:55.545Z,99202.69
2022-11-21T23:11:27.979Z,99193.97
2022-11-21T23:13:56.107Z,99188.66
2022-11-21T23:16:28.734Z,99185.13
2022-11-21T23:18:56.713Z,99182.94
2022-11-21T23:21:23.727Z,99173.88
2022-11-21T23:23:50.535Z,99171.47
2022-11-21T23:26:23.509Z,99175.69
2022-11-21T23:28:50.131Z,99168.47
2022-11-21T23:31:17.372Z,99171.94
2022-11-21T23:33:46.760Z,99166.09
2022-11-21T23:36:15.670Z,99156.47
2022-11-21T23:38:42.430Z,99166.22
2022-11-21T23:41:11.485Z,99168.47
2022-11-21T23:43:38.570Z,99155.66
2022-11-21T23:46:10.064Z,99161.69
2022-11-21T23:48:36.734Z,99156.41
2022-11-21T23:51:03.446Z,99159.00
2022-11-21T23:53:32.304Z,99152.91
2022-11-21T23:56:03.530Z,99161.50
2022-11-21T23:58:30.234Z,99146.75
